createdAt,value
2019-03-20T11:43:08.759Z,13.90
2019-03-20T11:45:37.995Z,20.05
2019-03-20T11:48:07.133Z,18.12
2019-03-20T11:50:45.471Z,17.77
2019-03-20T11:53:14.886Z,13.43
2019-03-20T11:55:44.230Z,14.70
2019-03-20T11:58:13.429Z,23.98
2019-03-20T12:00:42.634Z,17.98
2019-03-20T12:03:11.738Z,19.17
2019-03-20T12:05:41.231Z,19.85
2019-03-20T12:08:10.386Z,24.77
2019-03-20T12:10:39.617Z,22.58
2019-03-20T12:13:08.790Z,25.85
2019-03-20T12:15:37.649Z,25.48
2019-03-20T12:18:06.756Z,24.63
2019-03-20T12:20:35.912Z,21.60
2019-03-20T12:23:05.372Z,20.80
2019-03-20T12:25:36.199Z,24.43
2019-03-20T12:28:06.057Z,20.10
2019-03-20T12:30:37.289Z,20.80
2019-03-20T12:33:06.716Z,23.38
2019-03-20T12:35:47.500Z,21.20
2019-03-20T12:38:16.640Z,21.77
2019-03-20T12:40:45.855Z,21.40
2019-03-20T12:43:14.847Z,17.05
2019-03-20T12:45:43.637Z,21.07
2019-03-20T12:48:13.902Z,16.85
2019-03-20T12:50:42.832Z,20.82
2019-03-20T12:53:16.359Z,17.27
2019-03-20T12:55:45.211Z,13.10
2019-03-20T12:58:14.427Z,13.55
2019-03-20T13:05:41.034Z,12.82
2019-03-20T13:08:11.481Z,10.78
2019-03-20T13:10:40.289Z,11.55
2019-03-20T13:13:09.489Z,13.00
2019-03-20T13:15:38.433Z,12.07
2019-03-20T13:18:07.303Z,12.25
2019-03-20T13:20:36.240Z,11.57
2019-03-20T13:23:06.598Z,14.25
2019-03-20T13:25:35.418Z,11.38
2019-03-20T13:28:04.526Z,15.13
2019-03-20T13:30:41.157Z,8.53
2019-03-20T13:33:09.962Z,7.28
2019-03-20T13:35:38.771Z,13.35
2019-03-20T13:38:07.576Z,10.18
2019-03-20T13:40:36.447Z,11.30
2019-03-20T13:43:05.327Z,13.93
2019-03-20T13:45:34.161Z,12.63
2019-03-20T13:48:02.928Z,10.28
2019-03-20T13:50:31.789Z,11.48
2019-03-20T13:53:00.597Z,9.60
2019-03-20T13:55:29.379Z,8.03
2019-03-20T13:57:58.165Z,11.53
2019-03-20T14:00:27.476Z,10.90
2019-03-20T14:02:56.531Z,7.15
2019-03-20T14:05:25.397Z,9.95
2019-03-20T14:07:54.223Z,10.15
2019-03-20T14:10:25.463Z,6.72
2019-03-20T14:12:53.945Z,6.35
2019-03-20T14:15:23.112Z,7.35
2019-03-20T14:17:51.920Z,8.55
2019-03-20T14:20:25.116Z,10.23
2019-03-20T14:22:56.829Z,7.97
2019-03-20T14:25:25.908Z,8.48
2019-03-20T14:27:55.985Z,5.67
2019-03-20T14:30:28.397Z,8.05
2019-03-20T14:32:57.315Z,8.00
2019-03-20T14:35:26.459Z,9.38
2019-03-20T14:37:55.735Z,9.40
2019-03-20T14:40:35.509Z,6.03
2019-03-20T14:42:59.889Z,5.65
2019-03-20T14:45:28.703Z,7.72
2019-03-20T14:47:57.699Z,5.90
2019-03-20T14:50:33.642Z,4.60
2019-03-20T14:53:02.545Z,7.47
2019-03-20T14:55:31.595Z,6.45
2019-03-20T14:58:00.407Z,9.75
2019-03-20T15:00:30.151Z,8.40
2019-03-20T15:02:59.476Z,6.75
2019-03-20T15:05:28.545Z,5.22
2019-03-20T15:07:57.648Z,7.58
2019-03-20T15:10:26.899Z,7.37
2019-03-20T15:12:55.917Z,8.70
2019-03-20T15:15:26.180Z,9.55
2019-03-20T15:17:54.995Z,8.65
2019-03-20T15:20:23.834Z,8.68
2019-03-20T15:22:52.623Z,7.20
2019-03-20T15:25:21.433Z,6.87
2019-03-20T15:27:50.237Z,6.42
2019-03-20T15:30:25.673Z,6.92
2019-03-20T15:32:54.526Z,6.87
2019-03-20T15:35:23.339Z,6.60
2019-03-20T15:37:52.125Z,8.05
2019-03-20T15:40:27.656Z,9.48
2019-03-20T15:42:56.906Z,7.53
2019-03-20T15:45:27.093Z,8.33
2019-03-20T15:47:56.416Z,10.53
2019-03-20T15:50:28.723Z,6.53
2019-03-20T15:52:57.751Z,8.15
2019-03-20T15:55:31.035Z,10.60
2019-03-20T15:57:59.911Z,7.30
2019-03-20T16:00:28.822Z,7.25
2019-03-20T16:02:59.180Z,8.43
2019-03-20T16:05:28.340Z,8.80
2019-03-20T16:07:57.167Z,7.35
2019-03-20T16:10:26.737Z,9.25
2019-03-20T16:12:55.504Z,10.30
2019-03-20T16:15:24.814Z,8.15
2019-03-20T16:17:53.672Z,12.78
2019-03-20T16:20:22.504Z,10.90
2019-03-20T16:22:51.308Z,9.98
2019-03-20T16:25:21.215Z,8.50
2019-03-20T16:27:50.108Z,11.30
2019-03-20T16:30:23.745Z,9.90
2019-03-20T16:32:52.566Z,9.70
2019-03-20T16:35:21.491Z,11.38
2019-03-20T16:37:50.304Z,12.18
2019-03-20T16:40:23.395Z,10.30
2019-03-20T16:42:52.460Z,9.75
2019-03-20T16:45:22.604Z,8.03
2019-03-20T16:47:51.487Z,10.75
2019-03-20T16:50:20.446Z,8.10
2019-03-20T16:52:49.581Z,12.23
2019-03-20T16:55:19.082Z,14.23
2019-03-20T16:57:48.184Z,9.85
2019-03-20T17:00:22.793Z,13.08
2019-03-20T17:02:52.152Z,11.83
2019-03-20T17:05:21.392Z,13.35
2019-03-20T17:07:50.689Z,13.85
2019-03-20T17:10:40.083Z,12.25
2019-03-20T17:13:09.303Z,9.80
2019-03-20T17:15:40.658Z,13.70
2019-03-20T17:18:10.440Z,12.20
2019-03-20T17:20:40.193Z,10.70
2019-03-20T17:25:57.778Z,8.73
2019-03-20T17:28:27.690Z,6.97
2019-03-20T17:30:57.613Z,6.80
2019-03-20T17:33:32.459Z,8.53
2019-03-20T17:36:02.064Z,8.73
2019-03-20T17:38:54.021Z,8.45
2019-03-20T17:41:23.218Z,8.38
2019-03-20T17:43:52.369Z,9.63
2019-03-20T17:46:21.657Z,9.03
2019-03-20T17:48:51.269Z,7.75
2019-03-20T17:51:20.413Z,8.75
2019-03-20T17:53:49.631Z,7.28
2019-03-20T17:56:19.008Z,11.48
2019-03-20T17:58:48.460Z,12.58
2019-03-20T18:01:18.349Z,9.95
2019-03-20T18:03:49.056Z,12.10
2019-03-20T18:06:19.690Z,11.33
2019-03-20T18:08:56.210Z,8.20
2019-03-20T18:11:25.345Z,10.25
2019-03-20T18:13:56.911Z,11.88
2019-03-20T18:16:26.461Z,10.95
2019-03-20T18:18:56.447Z,9.98
2019-03-20T18:21:42.238Z,13.08
2019-03-20T18:24:11.406Z,10.28
2019-03-20T18:26:40.583Z,11.53
2019-03-20T18:29:09.729Z,10.60
2019-03-20T18:31:46.058Z,8.35
2019-03-20T18:34:09.709Z,9.30
2019-03-20T18:36:39.155Z,10.50
2019-03-20T18:39:08.902Z,9.80
2019-03-20T18:41:38.116Z,9.23
2019-03-20T18:44:07.526Z,10.95
2019-03-20T18:46:36.665Z,10.82
2019-03-20T18:49:05.886Z,9.98
2019-03-20T18:51:35.084Z,11.63
2019-03-20T18:54:04.404Z,13.62
2019-03-20T18:56:33.543Z,9.23
2019-03-20T18:59:04.409Z,10.95
2019-03-20T19:01:33.542Z,9.40
2019-03-20T19:04:02.855Z,12.68
2019-03-20T19:06:32.194Z,11.83
2019-03-20T19:12:08.905Z,11.48
2019-03-20T19:14:37.878Z,13.53
2019-03-20T19:17:07.005Z,10.93
2019-03-20T19:19:36.188Z,11.55
2019-03-20T19:22:06.052Z,13.68
2019-03-20T19:24:35.197Z,13.53
2019-03-20T19:27:04.854Z,11.57
2019-03-20T19:29:33.997Z,10.00
2019-03-20T19:32:03.166Z,13.68
2019-03-20T19:34:32.405Z,11.63
2019-03-20T19:37:01.592Z,9.50
2019-03-20T19:39:30.739Z,12.47
2019-03-20T19:41:59.901Z,12.47
2019-03-20T19:44:30.725Z,13.13
2019-03-20T19:46:59.915Z,10.85
2019-03-20T19:49:29.156Z,11.05
2019-03-20T19:51:58.279Z,12.00
2019-03-20T19:54:29.670Z,11.83
2019-03-20T19:56:58.157Z,12.78
2019-03-20T19:59:27.318Z,10.60
2019-03-20T20:01:56.483Z,11.50
2019-03-20T20:04:25.730Z,10.95
2019-03-20T20:06:54.997Z,20.10
2019-03-20T20:09:24.178Z,14.18
2019-03-20T20:11:53.801Z,12.88
2019-03-20T20:14:22.936Z,13.10
2019-03-20T20:16:52.080Z,11.45
2019-03-20T20:19:24.242Z,11.20
2019-03-20T20:21:53.364Z,14.78
2019-03-20T20:24:22.585Z,13.75
2019-03-20T20:26:51.726Z,13.32
2019-03-20T20:29:20.844Z,12.10
2019-03-20T20:31:49.992Z,16.00
2019-03-20T20:34:19.282Z,12.85
2019-03-20T20:36:48.457Z,13.05
2019-03-20T20:39:17.645Z,13.15
2019-03-20T20:41:46.855Z,13.60
2019-03-20T20:44:16.299Z,11.55
2019-03-20T20:46:45.460Z,12.05
2019-03-20T20:49:15.074Z,10.05
2019-03-20T20:51:44.245Z,10.93
2019-03-20T20:54:13.376Z,10.10
2019-03-20T20:56:42.574Z,12.45
2019-03-20T20:59:11.716Z,9.95
2019-03-20T21:01:40.968Z,12.10
2019-03-20T21:04:10.199Z,14.83
2019-03-20T21:06:39.551Z,13.83
2019-03-20T21:09:11.476Z,11.60
2019-03-20T21:11:40.792Z,11.65
2019-03-20T21:14:09.917Z,14.98
2019-03-20T21:16:42.166Z,12.45
2019-03-20T21:19:34.420Z,13.10
2019-03-20T21:22:21.991Z,13.03
2019-03-20T21:24:51.161Z,13.75
2019-03-20T21:27:51.765Z,13.90
2019-03-20T21:30:32.752Z,16.48
2019-03-20T21:33:13.616Z,14.47
2019-03-20T21:36:06.725Z,12.90
2019-03-20T21:38:35.865Z,14.63
2019-03-20T21:41:20.129Z,15.72
2019-03-20T21:44:10.351Z,13.72
2019-03-20T21:46:45.734Z,13.30
2019-03-20T21:49:15.099Z,13.55
2019-03-20T21:51:44.221Z,19.00
2019-03-20T21:54:33.643Z,18.07
2019-03-20T21:57:11.712Z,13.70
2019-03-20T21:59:49.846Z,16.87
2019-03-20T22:02:46.171Z,12.35
2019-03-20T22:05:30.260Z,13.20
2019-03-20T22:07:59.378Z,15.00
2019-03-20T22:10:31.512Z,14.38
2019-03-20T22:13:18.204Z,12.43
2019-03-20T22:15:55.537Z,15.60
2019-03-20T22:18:59.285Z,14.50
2019-03-20T22:21:36.852Z,14.20
2019-03-20T22:24:42.612Z,10.68
2019-03-20T22:27:32.665Z,14.15
2019-03-20T22:30:02.915Z,10.82
2019-03-20T22:32:38.236Z,11.90
2019-03-20T22:35:19.039Z,13.40
2019-03-20T22:37:48.331Z,14.00
2019-03-20T22:40:20.413Z,12.43
2019-03-20T22:43:09.039Z,14.33
2019-03-20T22:46:08.205Z,14.47
2019-03-20T22:49:12.013Z,13.48
2019-03-20T22:51:53.131Z,9.63
2019-03-20T22:54:46.103Z,15.35
2019-03-20T22:57:36.229Z,14.25
2019-03-20T23:00:10.751Z,13.30
2019-03-20T23:02:58.268Z,14.30
2019-03-20T23:05:27.856Z,14.53
2019-03-20T23:07:57.420Z,13.62
2019-03-20T23:10:27.021Z,14.10
2019-03-20T23:12:56.706Z,13.68
2019-03-20T23:15:26.315Z,13.35
2019-03-20T23:25:17.094Z,18.20
2019-03-20T23:27:46.291Z,13.32
2019-03-20T23:30:18.342Z,19.87
2019-03-20T23:32:47.490Z,17.92
2019-03-20T23:35:16.525Z,14.53
2019-03-20T23:37:45.643Z,16.10
2019-03-20T23:40:16.474Z,16.90
2019-03-20T23:42:54.360Z,13.22
2019-03-20T23:45:23.919Z,14.35
2019-03-20T23:48:10.541Z,15.43
2019-03-20T23:50:39.748Z,13.32
2019-03-20T23:53:09.137Z,12.70
2019-03-20T23:55:38.280Z,14.15
2019-03-20T23:58:07.455Z,13.85
